createdAt,value
2023-04-05T00:01:58.716Z,2.92
2023-04-05T00:04:28.943Z,2.91
2023-04-05T00:06:57.587Z,2.90
2023-04-05T00:09:26.385Z,2.88
2023-04-05T00:11:54.928Z,2.86
2023-04-05T00:14:23.177Z,2.86
2023-04-05T00:16:51.950Z,2.87
2023-04-05T00:19:23.289Z,2.89
2023-04-05T00:21:54.625Z,2.90
2023-04-05T00:24:23.185Z,2.88
2023-04-05T00:26:51.473Z,2.89
2023-04-05T00:29:19.934Z,2.93
2023-04-05T00:31:48.128Z,2.97
2023-04-05T00:34:18.598Z,2.97
2023-04-05T00:36:47.291Z,2.94
2023-04-05T00:39:15.583Z,2.91
2023-04-05T00:41:46.402Z,2.90
2023-04-05T00:44:15.930Z,2.89
2023-04-05T00:46:48.654Z,2.86
2023-04-05T00:49:16.912Z,2.85
2023-04-05T00:51:45.181Z,2.84
2023-04-05T00:54:14.164Z,2.83
2023-04-05T00:56:45.776Z,2.83
2023-04-05T00:59:16.010Z,2.82
2023-04-05T01:01:55.266Z,2.81
2023-04-05T01:04:30.843Z,2.82
2023-04-05T01:07:25.532Z,2.82
2023-04-05T01:09:56.784Z,2.83
2023-04-05T01:12:33.199Z,2.84
2023-04-05T01:15:01.542Z,2.86
2023-04-05T01:17:37.077Z,2.87
2023-04-05T01:20:10.769Z,2.86
2023-04-05T01:23:06.687Z,2.86
2023-04-05T01:25:45.144Z,2.85
2023-04-05T01:28:35.850Z,2.82
2023-04-05T01:31:15.729Z,2.80
2023-04-05T01:33:59.329Z,2.79
2023-04-05T01:36:44.023Z,2.81
2023-04-05T01:39:13.368Z,2.81
2023-04-05T01:41:41.419Z,2.82
2023-04-05T01:44:11.053Z,2.84
2023-04-05T01:46:39.461Z,2.84
2023-04-05T01:49:07.938Z,2.83
2023-04-05T01:51:36.695Z,2.82
2023-04-05T01:54:05.772Z,2.82
2023-04-05T01:56:33.807Z,2.82
2023-04-05T01:59:02.078Z,2.82
2023-04-05T02:01:30.935Z,2.79
2023-04-05T02:03:59.841Z,2.77
2023-04-05T02:06:32.450Z,2.77
2023-04-05T02:09:05.121Z,2.76
2023-04-05T02:11:33.290Z,2.76
2023-04-05T02:14:11.900Z,2.76
2023-04-05T02:16:43.403Z,2.74
2023-04-05T02:19:13.698Z,2.73
2023-04-05T02:21:48.063Z,2.73
2023-04-05T02:24:16.454Z,2.73
2023-04-05T02:26:46.659Z,2.73
2023-04-05T02:29:17.779Z,2.73
2023-04-05T02:31:46.522Z,2.75
2023-04-05T02:34:15.098Z,2.77
2023-04-05T02:36:44.208Z,2.78
2023-04-05T02:39:13.503Z,2.76
2023-04-05T02:41:42.754Z,2.75
2023-04-05T02:44:11.688Z,2.74
2023-04-05T02:46:39.766Z,2.73
2023-04-05T02:49:08.147Z,2.73
2023-04-05T02:51:37.006Z,2.72
2023-04-05T02:54:08.550Z,2.72
2023-04-05T02:56:37.411Z,2.73
2023-04-05T02:59:13.759Z,2.72
2023-04-05T03:01:44.675Z,2.72
2023-04-05T03:04:20.309Z,2.72
2023-04-05T03:06:51.124Z,2.73
2023-04-05T03:09:22.644Z,2.73
2023-04-05T03:11:54.075Z,2.72
2023-04-05T03:14:26.357Z,2.72
2023-04-05T03:16:54.837Z,2.70
2023-04-05T03:19:30.556Z,2.69
2023-04-05T03:22:09.172Z,2.69
2023-04-05T03:24:42.773Z,2.70
2023-04-05T03:27:14.082Z,2.71
2023-04-05T03:30:04.907Z,2.73
2023-04-05T03:32:41.442Z,2.73
2023-04-05T03:35:19.440Z,2.75
2023-04-05T03:37:50.877Z,2.75
2023-04-05T03:40:19.455Z,2.75
2023-04-05T03:42:49.333Z,2.76
2023-04-05T03:45:23.952Z,2.76
2023-04-05T03:47:58.134Z,2.78
2023-04-05T03:50:29.323Z,2.79
2023-04-05T03:53:03.534Z,2.80
2023-04-05T03:55:35.694Z,2.80
2023-04-05T03:58:05.362Z,2.81
2023-04-05T04:00:37.867Z,2.82
2023-04-05T04:03:14.306Z,2.82
2023-04-05T04:05:46.312Z,2.82
2023-04-05T04:08:16.786Z,2.82
2023-04-05T04:10:47.947Z,2.83
2023-04-05T04:13:25.022Z,2.83
2023-04-05T04:16:18.511Z,2.82
2023-04-05T04:19:07.374Z,2.82
2023-04-05T04:21:59.308Z,2.81
2023-04-05T04:24:56.134Z,2.81
2023-04-05T04:28:04.544Z,2.82
2023-04-05T04:30:51.917Z,2.82
2023-04-05T04:33:40.402Z,2.83
2023-04-05T04:36:36.378Z,2.84
2023-04-05T04:39:27.677Z,2.86
2023-04-05T04:42:20.042Z,2.86
2023-04-05T04:45:07.535Z,2.87
2023-04-05T04:47:50.117Z,2.87
2023-04-05T04:50:39.355Z,2.89
2023-04-05T04:53:08.111Z,2.92
2023-04-05T04:55:45.096Z,2.92
2023-04-05T04:58:13.660Z,2.92
2023-04-05T05:00:44.782Z,2.92
2023-04-05T05:03:14.513Z,2.92
2023-04-05T05:05:45.484Z,2.92
2023-04-05T05:08:24.263Z,2.94
2023-04-05T05:10:53.675Z,2.95
2023-04-05T05:13:24.861Z,2.96
2023-04-05T05:15:53.077Z,2.97
2023-04-05T05:18:21.747Z,2.97
2023-04-05T05:20:55.253Z,2.96
2023-04-05T05:23:24.996Z,2.95
2023-04-05T05:25:57.742Z,2.93
2023-04-05T05:28:27.699Z,2.91
2023-04-05T05:30:56.620Z,2.90
2023-04-05T05:33:26.108Z,2.89
2023-04-05T05:35:54.415Z,2.89
2023-04-05T05:38:23.705Z,2.90
2023-04-05T05:40:57.099Z,2.89
2023-04-05T05:43:25.402Z,2.91
2023-04-05T05:45:53.939Z,2.90
2023-04-05T05:48:22.830Z,2.91
2023-04-05T05:50:51.219Z,2.92
2023-04-05T05:53:19.533Z,2.93
2023-04-05T05:55:47.756Z,2.94
2023-04-05T05:58:18.546Z,2.93
2023-04-05T06:00:49.202Z,2.93
2023-04-05T06:03:21.866Z,2.94
2023-04-05T06:05:56.097Z,2.94
2023-04-05T06:08:25.779Z,2.94
2023-04-05T06:10:55.427Z,2.93
2023-04-05T06:13:23.961Z,2.91
2023-04-05T06:15:53.168Z,2.90
2023-04-05T06:18:22.784Z,2.90
2023-04-05T06:20:51.144Z,2.90
2023-04-05T06:23:20.675Z,2.90
2023-04-05T06:25:49.436Z,2.90
2023-04-05T06:31:03.180Z,2.91
2023-04-05T06:33:32.311Z,2.93
2023-04-05T06:36:00.848Z,2.95
2023-04-05T06:38:29.409Z,2.93
2023-04-05T06:40:57.608Z,2.92
2023-04-05T06:43:26.317Z,2.92
2023-04-05T06:45:57.761Z,2.92
2023-04-05T06:48:28.477Z,2.91
2023-04-05T06:51:01.166Z,2.91
2023-04-05T06:53:29.739Z,2.90
2023-04-05T06:55:58.973Z,2.91
2023-04-05T06:58:27.777Z,2.92
2023-04-05T07:00:57.026Z,2.92
2023-04-05T07:03:31.193Z,2.92
2023-04-05T07:06:00.267Z,2.93
2023-04-05T07:08:32.583Z,2.91
2023-04-05T07:11:02.944Z,2.92
2023-04-05T07:13:32.503Z,2.93
2023-04-05T07:16:03.585Z,2.96
2023-04-05T07:18:32.958Z,2.95
2023-04-05T07:21:02.179Z,2.96
2023-04-05T07:23:34.826Z,2.98
2023-04-05T07:26:04.955Z,3.02
2023-04-05T07:28:33.909Z,3.04
2023-04-05T07:31:04.548Z,3.09
2023-04-05T07:33:34.141Z,3.11
2023-04-05T07:36:06.333Z,3.15
2023-04-05T07:38:35.133Z,3.17
2023-04-05T07:41:06.683Z,3.17
2023-04-05T07:43:43.134Z,3.17
2023-04-05T07:46:14.863Z,3.18
2023-04-05T07:48:49.711Z,3.20
2023-04-05T07:51:18.604Z,3.23
2023-04-05T07:53:47.092Z,3.27
2023-04-05T07:56:16.027Z,3.29
2023-04-05T07:58:51.362Z,3.30
2023-04-05T08:01:19.753Z,3.29
2023-04-05T08:03:48.835Z,3.29
2023-04-05T08:06:24.203Z,3.30
2023-04-05T08:08:56.996Z,3.32
2023-04-05T08:11:29.902Z,3.37
2023-04-05T08:14:04.873Z,3.40
2023-04-05T08:16:34.157Z,3.44
2023-04-05T08:19:02.733Z,3.45
2023-04-05T08:21:31.029Z,3.47
2023-04-05T08:24:02.064Z,3.47
2023-04-05T08:26:31.705Z,3.47
2023-04-05T08:29:05.589Z,3.49
2023-04-05T08:31:35.217Z,3.52
2023-04-05T08:34:05.504Z,3.55
2023-04-05T08:36:34.899Z,3.61
2023-04-05T08:39:03.313Z,3.65
2023-04-05T08:41:37.284Z,3.69
2023-04-05T08:44:05.914Z,3.70
2023-04-05T08:46:34.974Z,3.69
2023-04-05T08:49:09.082Z,3.70
2023-04-05T08:51:40.604Z,3.71
2023-04-05T08:54:10.226Z,3.73
2023-04-05T08:56:38.466Z,3.74
2023-04-05T08:59:12.403Z,3.76
2023-04-05T09:01:44.762Z,3.78
2023-04-05T09:04:24.490Z,3.81
2023-04-05T09:06:56.245Z,3.84
2023-04-05T09:09:28.861Z,3.88
2023-04-05T09:11:57.818Z,3.93
2023-04-05T09:14:26.140Z,4.00
2023-04-05T09:16:54.365Z,4.03
2023-04-05T09:19:23.793Z,4.06
2023-04-05T09:22:01.864Z,4.06
2023-04-05T09:24:38.060Z,4.06
2023-04-05T09:27:07.978Z,4.07
2023-04-05T09:29:47.475Z,4.08
2023-04-05T09:32:17.315Z,4.07
2023-04-05T09:34:48.185Z,4.07
2023-04-05T09:37:25.396Z,4.08
2023-04-05T09:40:03.614Z,4.11
2023-04-05T09:42:44.592Z,4.11
2023-04-05T09:45:14.173Z,4.12
2023-04-05T09:47:56.787Z,4.12
2023-04-05T09:50:25.098Z,4.13
2023-04-05T09:53:09.447Z,4.13
2023-04-05T09:55:39.982Z,4.13
2023-04-05T09:58:13.890Z,4.14
2023-04-05T10:00:57.911Z,4.15
2023-04-05T10:03:32.540Z,4.16
2023-04-05T10:06:01.516Z,4.19
2023-04-05T10:08:33.079Z,4.24
2023-04-05T10:11:01.848Z,4.29
2023-04-05T10:13:30.615Z,4.34
2023-04-05T10:16:01.413Z,4.38
2023-04-05T10:18:32.691Z,4.43
2023-04-05T10:21:02.119Z,4.47
2023-04-05T10:23:33.839Z,4.51
2023-04-05T10:26:09.875Z,4.57
2023-04-05T10:28:40.158Z,4.63
2023-04-05T10:31:36.934Z,4.67
2023-04-05T10:34:07.527Z,4.71
2023-04-05T10:36:54.239Z,4.74
2023-04-05T10:39:29.698Z,4.79
2023-04-05T10:42:21.379Z,4.83
2023-04-05T10:44:55.587Z,4.87
2023-04-05T10:47:24.361Z,4.92
2023-04-05T10:49:55.776Z,4.96
2023-04-05T10:52:24.432Z,5.00
2023-04-05T10:54:57.448Z,5.03
2023-04-05T10:57:32.347Z,5.07
2023-04-05T11:00:03.663Z,5.10
2023-04-05T11:02:34.903Z,5.16
2023-04-05T11:05:05.153Z,5.19
2023-04-05T11:07:46.215Z,5.21
2023-04-05T11:10:20.469Z,5.24
2023-04-05T11:12:59.150Z,5.27
2023-04-05T11:15:30.712Z,5.31
2023-04-05T11:18:08.497Z,5.33
2023-04-05T11:21:06.788Z,5.35
2023-04-05T11:24:02.027Z,5.40
2023-04-05T11:26:40.076Z,5.45
2023-04-05T11:29:13.887Z,5.47
2023-04-05T11:32:02.403Z,5.52
2023-04-05T11:34:33.276Z,5.55
2023-04-05T11:37:01.557Z,5.58
2023-04-05T11:39:30.423Z,5.62
2023-04-05T11:42:02.949Z,5.63
2023-04-05T11:44:44.274Z,5.64
2023-04-05T11:47:14.235Z,5.64
2023-04-05T11:49:47.568Z,5.61
2023-04-05T11:52:20.870Z,5.61
2023-04-05T11:54:52.492Z,5.62
2023-04-05T11:57:22.953Z,5.65
2023-04-05T11:59:52.286Z,5.65
2023-04-05T12:02:21.153Z,5.64
2023-04-05T12:04:57.427Z,5.62
2023-04-05T12:07:29.218Z,5.62
2023-04-05T12:09:57.550Z,5.62
2023-04-05T12:12:29.080Z,5.65
2023-04-05T12:15:02.130Z,5.64
2023-04-05T12:18:03.162Z,5.61
2023-04-05T12:20:42.395Z,5.57
2023-04-05T12:23:12.211Z,5.55
2023-04-05T12:25:54.861Z,5.56
2023-04-05T12:29:02.772Z,5.57
2023-04-05T12:31:43.853Z,5.60
2023-04-05T12:34:26.370Z,5.66
2023-04-05T12:36:57.863Z,5.71
2023-04-05T12:39:36.758Z,5.74
2023-04-05T12:42:46.916Z,5.80
2023-04-05T12:45:17.102Z,5.85
2023-04-05T12:47:53.182Z,5.86
2023-04-05T12:50:37.012Z,5.87
2023-04-05T12:53:24.627Z,5.87
2023-04-05T12:56:01.158Z,5.88
2023-04-05T12:58:37.203Z,5.89
2023-04-05T13:01:09.411Z,5.92
2023-04-05T13:03:42.344Z,5.98
2023-04-05T13:06:11.404Z,6.08
2023-04-05T13:08:41.097Z,6.14
2023-04-05T13:11:11.379Z,6.18
2023-04-05T13:13:41.213Z,6.19
2023-04-05T13:16:11.284Z,6.20
2023-04-05T13:18:56.901Z,6.20
2023-04-05T13:21:43.005Z,6.18
2023-04-05T13:24:12.891Z,6.19
2023-04-05T13:26:44.404Z,6.20
2023-04-05T13:29:12.972Z,6.19
2023-04-05T13:31:41.299Z,6.17
2023-04-05T13:34:11.316Z,6.13
2023-04-05T13:36:43.897Z,6.09
2023-04-05T13:39:13.391Z,6.08
2023-04-05T13:41:42.495Z,6.06
2023-04-05T13:44:13.869Z,6.07
2023-04-05T13:47:27.669Z,6.09
2023-04-05T13:50:39.022Z,6.11
2023-04-05T13:53:10.886Z,6.11
2023-04-05T13:55:39.783Z,6.09
2023-04-05T13:58:08.607Z,6.05
2023-04-05T14:00:38.442Z,6.02
2023-04-05T14:03:07.833Z,6.00
2023-04-05T14:05:37.020Z,5.97
2023-04-05T14:08:05.788Z,5.96
2023-04-05T14:10:40.849Z,5.91
2023-04-05T14:13:09.304Z,5.88
2023-04-05T14:15:37.577Z,5.87
2023-04-05T14:18:09.909Z,5.86
2023-04-05T14:20:39.624Z,5.84
2023-04-05T14:23:07.991Z,5.82
2023-04-05T14:25:55.009Z,5.79
2023-04-05T14:28:58.977Z,5.77
2023-04-05T14:31:37.224Z,5.78
2023-04-05T14:34:16.902Z,5.77
2023-04-05T14:36:45.915Z,5.75
2023-04-05T14:39:17.329Z,5.75
2023-04-05T14:41:54.445Z,5.75
2023-04-05T14:44:32.969Z,5.73
2023-04-05T14:47:11.301Z,5.72
2023-04-05T14:49:49.358Z,5.71
2023-04-05T14:52:21.437Z,5.71
2023-04-05T14:54:56.823Z,5.74
2023-04-05T14:57:25.769Z,5.76
2023-04-05T15:00:19.694Z,5.76
2023-04-05T15:03:02.092Z,5.77
2023-04-05T15:06:28.471Z,5.78
2023-04-05T15:08:39.426Z,5.78
2023-04-05T15:11:13.090Z,5.77
2023-04-05T15:13:46.148Z,5.78
2023-04-05T15:16:25.474Z,5.78
2023-04-05T15:19:06.653Z,5.80
2023-04-05T15:21:39.480Z,5.79
2023-04-05T15:24:12.187Z,5.77
2023-04-05T15:26:56.244Z,5.77
2023-04-05T15:29:34.339Z,5.78
2023-04-05T15:32:08.340Z,5.79
2023-04-05T15:34:36.858Z,5.78
2023-04-05T15:37:08.688Z,5.78
2023-04-05T15:39:40.299Z,5.77
2023-04-05T15:42:08.881Z,5.74
2023-04-05T15:44:39.201Z,5.73
2023-04-05T15:47:07.647Z,5.72
2023-04-05T15:49:37.777Z,5.70
2023-04-05T15:53:13.029Z,5.70
2023-04-05T15:55:52.580Z,5.68
2023-04-05T15:58:40.743Z,5.66
2023-04-05T16:01:09.693Z,5.63
2023-04-05T16:03:46.217Z,5.63
2023-04-05T16:06:16.149Z,5.62
2023-04-05T16:08:51.033Z,5.61
2023-04-05T16:11:22.405Z,5.60
2023-04-05T16:13:57.499Z,5.59
2023-04-05T16:16:38.501Z,5.56
2023-04-05T16:19:10.851Z,5.55
2023-04-05T16:21:39.727Z,5.55
2023-04-05T16:24:09.580Z,5.56
2023-04-05T16:26:44.307Z,5.55
2023-04-05T16:29:33.769Z,5.56
2023-04-05T16:32:11.467Z,5.55
2023-04-05T16:34:40.559Z,5.55
2023-04-05T16:37:09.271Z,5.54
2023-04-05T16:39:38.017Z,5.55
2023-04-05T16:42:09.972Z,5.55
2023-04-05T16:44:46.095Z,5.55
2023-04-05T16:47:21.399Z,5.54
2023-04-05T16:49:51.252Z,5.53
2023-04-05T16:52:24.491Z,5.54
2023-04-05T16:54:53.393Z,5.55
2023-04-05T16:57:24.645Z,5.56
2023-04-05T16:59:52.992Z,5.58
2023-04-05T17:02:23.266Z,5.59
2023-04-05T17:04:54.921Z,5.60
2023-04-05T17:07:23.657Z,5.60
2023-04-05T17:10:34.039Z,5.59
2023-04-05T17:12:58.298Z,5.59
2023-04-05T17:16:23.490Z,5.59
2023-04-05T17:18:52.598Z,5.59
2023-04-05T17:21:23.413Z,5.59
2023-04-05T17:23:55.899Z,5.60
2023-04-05T17:26:34.444Z,5.62
2023-04-05T17:32:33.410Z,5.63
2023-04-05T17:35:04.317Z,5.64
2023-04-05T17:38:07.184Z,5.65
2023-04-05T17:40:38.600Z,5.66
2023-04-05T17:43:18.271Z,5.68
2023-04-05T17:46:30.503Z,5.69
2023-04-05T17:49:08.472Z,5.67
2023-04-05T17:52:01.179Z,5.68
2023-04-05T17:58:12.546Z,5.68
2023-04-05T18:01:55.308Z,5.67
2023-04-05T18:05:23.169Z,5.67
2023-04-05T18:12:20.491Z,5.69
2023-04-05T18:15:08.754Z,5.69
2023-04-05T18:17:56.889Z,5.69
2023-04-05T18:20:25.355Z,5.70
2023-04-05T18:23:04.283Z,5.71
2023-04-05T18:25:36.346Z,5.72
2023-04-05T18:28:19.390Z,5.72
2023-04-05T18:30:51.332Z,5.73
2023-04-05T18:33:22.609Z,5.72
2023-04-05T18:35:51.013Z,5.73
2023-04-05T18:38:20.506Z,5.74
2023-04-05T18:40:48.742Z,5.76
2023-04-05T18:43:17.875Z,5.78
2023-04-05T18:45:48.554Z,5.80
2023-04-05T18:48:21.047Z,5.82
2023-04-05T18:50:55.208Z,5.84
2023-04-05T18:53:23.753Z,5.86
2023-04-05T18:55:54.681Z,5.88
2023-04-05T18:58:22.799Z,5.89
2023-04-05T19:01:04.201Z,5.92
2023-04-05T19:03:33.834Z,5.96
2023-04-05T19:06:17.322Z,6.00
2023-04-05T19:08:53.246Z,6.04
2023-04-05T19:11:22.175Z,6.07
2023-04-05T19:13:52.562Z,6.10
2023-04-05T19:16:21.281Z,6.14
2023-04-05T19:19:02.399Z,6.18
2023-04-05T19:21:35.617Z,6.21
2023-04-05T19:24:04.682Z,6.22
2023-04-05T19:26:36.276Z,6.24
2023-04-05T19:29:04.482Z,6.24
2023-04-05T19:31:36.688Z,6.24
2023-04-05T19:34:08.971Z,6.23
2023-04-05T19:36:37.529Z,6.20
2023-04-05T19:39:06.630Z,6.21
2023-04-05T19:41:36.236Z,6.21
2023-04-05T19:44:08.375Z,6.23
2023-04-05T19:46:39.419Z,6.25
2023-04-05T19:49:10.186Z,6.27
2023-04-05T19:51:38.592Z,6.30
2023-04-05T19:54:12.550Z,6.34
2023-04-05T19:56:42.158Z,6.36
2023-04-05T19:59:13.620Z,6.37
2023-04-05T20:01:42.731Z,6.37
2023-04-05T20:04:15.597Z,6.38
2023-04-05T20:06:53.162Z,6.39
2023-04-05T20:09:22.605Z,6.40
2023-04-05T20:12:03.877Z,6.43
2023-04-05T20:14:41.959Z,6.47
2023-04-05T20:17:12.540Z,6.49
2023-04-05T20:19:41.694Z,6.51
2023-04-05T20:22:10.086Z,6.53
2023-04-05T20:24:39.919Z,6.54
2023-04-05T20:27:15.129Z,6.58
2023-04-05T20:29:46.026Z,6.61
2023-04-05T20:32:14.352Z,6.66
2023-04-05T20:34:44.221Z,6.70
2023-04-05T20:37:13.756Z,6.72
2023-04-05T20:39:43.569Z,6.76
2023-04-05T20:42:12.132Z,6.78
2023-04-05T20:44:41.517Z,6.80
2023-04-05T20:47:10.165Z,6.81
2023-04-05T20:49:38.460Z,6.82
2023-04-05T20:52:08.872Z,6.85
2023-04-05T20:54:37.389Z,6.86
2023-04-05T20:57:07.941Z,6.90
2023-04-05T20:59:36.644Z,6.92
2023-04-05T21:02:05.138Z,6.93
2023-04-05T21:04:38.389Z,6.95
2023-04-05T21:07:07.820Z,6.97
2023-04-05T21:09:51.634Z,6.99
2023-04-05T21:12:26.386Z,7.02
2023-04-05T21:15:01.529Z,7.04
2023-04-05T21:17:35.037Z,7.07
2023-04-05T21:20:06.438Z,7.10
2023-04-05T21:22:34.996Z,7.12
2023-04-05T21:25:08.404Z,7.14
2023-04-05T21:27:36.912Z,7.18
2023-04-05T21:30:09.619Z,7.21
2023-04-05T21:32:39.161Z,7.25
2023-04-05T21:35:08.901Z,7.27
2023-04-05T21:37:37.361Z,7.28
2023-04-05T21:40:06.520Z,7.28
2023-04-05T21:42:37.915Z,7.29
2023-04-05T21:45:07.515Z,7.30
2023-04-05T21:47:36.656Z,7.31
2023-04-05T21:50:08.997Z,7.32
2023-04-05T21:52:38.495Z,7.30
2023-04-05T21:55:09.588Z,7.30
2023-04-05T21:57:38.837Z,7.32
2023-04-05T22:00:11.082Z,7.32
2023-04-05T22:02:46.817Z,7.31
2023-04-05T22:05:22.595Z,7.29
2023-04-05T22:08:03.857Z,7.27
2023-04-05T22:10:32.472Z,7.23
2023-04-05T22:13:02.149Z,7.22
2023-04-05T22:15:33.418Z,7.22
2023-04-05T22:18:05.719Z,7.22
2023-04-05T22:20:35.927Z,7.21
2023-04-05T22:23:04.080Z,7.22
2023-04-05T22:25:33.433Z,7.22
2023-04-05T22:28:04.820Z,7.20
2023-04-05T22:30:43.828Z,7.19
2023-04-05T22:33:13.273Z,7.19
2023-04-05T22:35:41.880Z,7.20
2023-04-05T22:38:13.479Z,7.21
2023-04-05T22:40:42.216Z,7.20
2023-04-05T22:43:10.612Z,7.19
2023-04-05T22:45:39.507Z,7.21
2023-04-05T22:48:08.059Z,7.22
2023-04-05T22:50:36.516Z,7.23
2023-04-05T22:53:05.600Z,7.25
2023-04-05T22:55:41.222Z,7.27
2023-04-05T22:58:11.491Z,7.29
2023-04-05T23:00:39.755Z,7.29
2023-04-05T23:03:09.976Z,7.28
2023-04-05T23:05:38.639Z,7.25
2023-04-05T23:08:07.201Z,7.23
2023-04-05T23:10:36.117Z,7.23
2023-04-05T23:13:05.771Z,7.23
2023-04-05T23:15:33.809Z,7.25
2023-04-05T23:18:02.547Z,7.26
2023-04-05T23:20:31.345Z,7.26
2023-04-05T23:23:00.102Z,7.27
2023-04-05T23:25:31.035Z,7.28
2023-04-05T23:28:00.478Z,7.28
2023-04-05T23:30:29.025Z,7.29
2023-04-05T23:33:05.095Z,7.30
2023-04-05T23:35:33.392Z,7.31
2023-04-05T23:38:01.891Z,7.32
2023-04-05T23:40:30.244Z,7.34
2023-04-05T23:42:59.481Z,7.35
2023-04-05T23:45:27.983Z,7.37
2023-04-05T23:48:01.514Z,7.38
2023-04-05T23:50:33.701Z,7.40
2023-04-05T23:53:03.096Z,7.41
2023-04-05T23:55:40.327Z,7.43
2023-04-05T23:58:08.750Z,7.45
